createdAt,value
2019-05-22T00:01:45.506Z,85.90
2019-05-22T00:04:15.555Z,86.10
2019-05-22T00:06:45.771Z,85.90
2019-05-22T00:09:20.183Z,85.70
2019-05-22T00:11:49.877Z,85.80
2019-05-22T00:14:18.571Z,85.90
2019-05-22T00:16:47.722Z,85.90
2019-05-22T00:19:16.420Z,85.90
2019-05-22T00:21:46.542Z,85.80
2019-05-22T00:24:16.703Z,85.60
2019-05-22T00:26:46.389Z,85.30
2019-05-22T00:29:15.831Z,85.60
2019-05-22T00:31:44.920Z,85.40
2019-05-22T00:34:13.994Z,85.20
2019-05-22T00:36:43.811Z,85.10
2019-05-22T00:39:13.932Z,84.90
2019-05-22T00:41:42.700Z,85.00
2019-05-22T00:44:13.332Z,85.00
2019-05-22T00:46:43.920Z,85.30
2019-05-22T00:49:13.808Z,85.10
2019-05-22T00:51:56.532Z,85.00
2019-05-22T00:54:36.727Z,84.70
2019-05-22T00:57:07.492Z,84.50
2019-05-22T00:59:49.550Z,84.50
2019-05-22T01:02:28.298Z,84.20
2019-05-22T01:04:57.941Z,84.30
2019-05-22T01:07:30.463Z,84.20
2019-05-22T01:10:00.124Z,84.10
2019-05-22T01:12:43.227Z,84.00
2019-05-22T01:15:14.846Z,84.10
2019-05-22T01:17:45.036Z,84.00
2019-05-22T01:20:19.325Z,83.80
2019-05-22T01:22:48.979Z,83.60
2019-05-22T01:25:27.999Z,84.20
2019-05-22T01:27:57.931Z,83.70
2019-05-22T01:30:39.965Z,83.70
2019-05-22T01:33:16.120Z,83.30
2019-05-22T01:36:01.768Z,83.20
2019-05-22T01:38:31.624Z,83.20
2019-05-22T01:41:10.585Z,83.20
2019-05-22T01:43:39.843Z,83.10
2019-05-22T01:46:09.649Z,83.00
2019-05-22T01:48:40.393Z,82.80
2019-05-22T01:51:11.122Z,82.60
2019-05-22T01:53:41.761Z,82.60
2019-05-22T01:56:15.754Z,82.50
2019-05-22T01:58:45.201Z,82.70
2019-05-22T02:01:20.219Z,82.40
2019-05-22T02:03:50.292Z,82.50
2019-05-22T02:06:21.597Z,82.30
2019-05-22T02:08:57.066Z,82.50
2019-05-22T02:11:27.301Z,82.30
2019-05-22T02:14:12.309Z,82.30
2019-05-22T02:16:55.902Z,82.30
2019-05-22T02:21:47.592Z,82.10
2019-05-22T02:24:18.556Z,81.90
2019-05-22T02:26:47.607Z,81.70
2019-05-22T02:29:18.539Z,81.80
2019-05-22T02:31:48.328Z,81.60
2019-05-22T02:34:17.004Z,81.60
2019-05-22T02:36:46.285Z,81.70
2019-05-22T02:39:18.103Z,81.70
2019-05-22T02:41:53.058Z,81.60
2019-05-22T02:44:22.840Z,81.40
2019-05-22T02:46:53.361Z,81.50
2019-05-22T02:49:24.018Z,81.10
2019-05-22T02:51:53.827Z,81.40
2019-05-22T02:54:22.623Z,81.20
2019-05-22T02:56:51.307Z,81.10
2019-05-22T02:59:20.951Z,80.90
2019-05-22T03:01:49.735Z,80.90
2019-05-22T03:04:19.904Z,80.70
2019-05-22T03:06:50.144Z,80.50
2019-05-22T03:09:20.693Z,80.50
2019-05-22T03:12:01.857Z,80.40
2019-05-22T03:14:32.284Z,80.40
2019-05-22T03:17:04.486Z,80.00
2019-05-22T03:19:42.703Z,80.00
2019-05-22T03:22:37.007Z,79.90
2019-05-22T03:25:09.182Z,79.90
2019-05-22T03:27:43.946Z,79.90
2019-05-22T03:30:25.217Z,80.10
2019-05-22T03:32:56.557Z,79.90
2019-05-22T03:35:28.201Z,79.90
2019-05-22T03:37:58.907Z,79.80
2019-05-22T03:40:29.445Z,79.70
2019-05-22T03:42:59.606Z,79.40
2019-05-22T03:45:29.351Z,79.20
2019-05-22T03:47:57.822Z,79.30
2019-05-22T03:50:28.510Z,79.10
2019-05-22T03:52:58.605Z,79.00
2019-05-22T03:55:27.816Z,78.70
2019-05-22T03:57:56.379Z,78.80
2019-05-22T04:00:25.703Z,78.70
2019-05-22T04:02:54.726Z,78.70
2019-05-22T04:05:25.174Z,78.70
2019-05-22T04:07:55.560Z,78.40
2019-05-22T04:10:25.832Z,78.30
2019-05-22T04:12:55.494Z,78.20
2019-05-22T04:15:24.600Z,78.20
2019-05-22T04:17:55.005Z,78.10
2019-05-22T04:20:23.666Z,78.30
2019-05-22T04:22:59.709Z,78.30
2019-05-22T04:25:28.635Z,78.50
2019-05-22T04:27:57.507Z,78.20
2019-05-22T04:30:26.079Z,78.20
2019-05-22T04:32:55.045Z,78.20
2019-05-22T04:35:23.838Z,78.10
2019-05-22T04:37:52.689Z,77.90
2019-05-22T04:40:27.219Z,77.80
2019-05-22T04:42:58.654Z,78.00
2019-05-22T04:45:28.294Z,77.90
2019-05-22T04:48:02.706Z,77.90
2019-05-22T04:50:32.207Z,77.90
2019-05-22T04:53:01.313Z,78.00
2019-05-22T04:55:31.119Z,77.90
2019-05-22T04:58:02.984Z,77.80
2019-05-22T05:00:32.449Z,77.60
2019-05-22T05:03:01.006Z,77.60
2019-05-22T05:05:37.079Z,77.80
2019-05-22T05:08:05.557Z,77.90
2019-05-22T05:10:34.106Z,78.00
2019-05-22T05:13:02.850Z,78.30
2019-05-22T05:15:31.315Z,78.10
2019-05-22T05:17:59.735Z,78.20
2019-05-22T05:20:28.158Z,78.10
2019-05-22T05:22:56.650Z,78.20
2019-05-22T05:25:25.490Z,78.20
2019-05-22T05:27:54.771Z,77.90
2019-05-22T05:30:25.399Z,77.80
2019-05-22T05:32:54.342Z,77.70
2019-05-22T05:35:23.573Z,77.50
2019-05-22T05:37:52.573Z,77.10
2019-05-22T05:40:34.616Z,77.30
2019-05-22T05:43:04.370Z,77.10
2019-05-22T05:45:33.736Z,76.90
2019-05-22T05:48:05.232Z,76.70
2019-05-22T05:50:39.605Z,76.70
2019-05-22T05:53:06.511Z,76.50
2019-05-22T05:55:52.608Z,76.10
2019-05-22T05:58:29.726Z,75.50
2019-05-22T06:01:09.133Z,75.50
2019-05-22T06:03:42.226Z,75.40
2019-05-22T06:06:27.111Z,75.30
2019-05-22T06:08:57.499Z,74.80
2019-05-22T06:11:40.556Z,73.90
2019-05-22T06:14:12.915Z,74.20
2019-05-22T06:16:52.223Z,73.90
2019-05-22T06:19:22.252Z,73.80
2019-05-22T06:21:51.802Z,73.80
2019-05-22T06:24:32.959Z,73.10
2019-05-22T06:27:11.243Z,72.50
2019-05-22T06:29:48.892Z,72.10
2019-05-22T06:32:37.463Z,71.50
2019-05-22T06:35:07.627Z,70.90
2019-05-22T06:37:39.911Z,70.20
2019-05-22T06:40:10.114Z,70.10
2019-05-22T06:42:40.602Z,69.50
2019-05-22T06:45:09.481Z,68.80
2019-05-22T06:47:37.889Z,68.80
2019-05-22T06:50:06.823Z,68.40
2019-05-22T06:52:35.386Z,68.40
2019-05-22T06:55:04.363Z,68.10
2019-05-22T06:57:34.473Z,66.80
2019-05-22T07:00:14.842Z,64.90
2019-05-22T07:02:36.037Z,62.40
2019-05-22T07:05:06.051Z,61.50
2019-05-22T07:07:34.531Z,60.10
2019-05-22T07:10:05.298Z,59.20
2019-05-22T07:12:35.823Z,58.60
2019-05-22T07:15:08.375Z,58.40
2019-05-22T07:17:37.643Z,58.60
2019-05-22T07:20:07.343Z,58.00
2019-05-22T07:22:35.887Z,59.80
2019-05-22T07:25:05.995Z,57.60
2019-05-22T07:27:35.515Z,55.70
2019-05-22T07:30:06.026Z,55.30
2019-05-22T07:32:34.543Z,56.00
2019-05-22T07:35:03.592Z,56.40
2019-05-22T07:37:35.189Z,57.00
2019-05-22T07:40:04.827Z,54.90
2019-05-22T07:42:33.602Z,53.20
2019-05-22T07:45:02.172Z,51.90
2019-05-22T07:47:31.100Z,50.50
2019-05-22T07:49:59.615Z,48.50
2019-05-22T07:52:28.272Z,47.10
2019-05-22T07:54:57.897Z,46.50
2019-05-22T07:57:27.323Z,45.90
2019-05-22T07:59:55.748Z,46.40
2019-05-22T08:02:27.428Z,46.10
2019-05-22T08:04:55.915Z,45.50
2019-05-22T08:07:25.945Z,45.10
2019-05-22T08:09:54.598Z,44.10
2019-05-22T08:12:24.620Z,43.20
2019-05-22T08:15:13.880Z,42.30
2019-05-22T08:17:43.154Z,42.80
2019-05-22T08:20:12.702Z,43.20
2019-05-22T08:22:42.628Z,42.70
2019-05-22T08:25:11.874Z,42.70
2019-05-22T08:27:41.293Z,42.90
2019-05-22T08:30:10.290Z,42.40
2019-05-22T08:32:39.540Z,42.70
2019-05-22T08:35:10.641Z,43.60
2019-05-22T08:37:39.657Z,43.90
2019-05-22T08:40:11.617Z,43.30
2019-05-22T08:42:41.649Z,43.60
2019-05-22T08:45:11.597Z,43.00
2019-05-22T08:47:40.236Z,41.70
2019-05-22T08:50:10.664Z,41.20
2019-05-22T08:52:40.918Z,41.50
2019-05-22T08:55:10.993Z,41.10
2019-05-22T08:57:42.491Z,39.60
2019-05-22T09:00:21.935Z,39.50
2019-05-22T09:02:50.779Z,38.80
2019-05-22T09:05:21.493Z,39.70
2019-05-22T09:07:49.667Z,39.30
2019-05-22T09:10:19.109Z,39.10
2019-05-22T09:12:47.577Z,39.60
2019-05-22T09:15:16.451Z,40.80
2019-05-22T09:17:45.153Z,40.20
2019-05-22T09:20:14.158Z,40.50
2019-05-22T09:22:43.685Z,42.10
2019-05-22T09:25:14.350Z,41.70
2019-05-22T09:27:42.979Z,42.10
2019-05-22T09:30:11.849Z,41.50
2019-05-22T09:32:40.446Z,41.40
2019-05-22T09:35:09.398Z,41.60
2019-05-22T09:37:38.159Z,42.30
2019-05-22T09:40:07.120Z,43.10
2019-05-22T09:42:36.280Z,43.70
2019-05-22T09:45:09.022Z,44.10
2019-05-22T09:47:38.739Z,45.80
2019-05-22T09:50:09.438Z,45.70
2019-05-22T09:52:55.910Z,45.80
2019-05-22T09:55:10.952Z,44.80
2019-05-22T09:57:39.435Z,44.40
2019-05-22T10:00:11.654Z,44.70
2019-05-22T10:02:40.707Z,44.80
2019-05-22T10:05:11.125Z,44.00
2019-05-22T10:07:57.175Z,43.30
2019-05-22T10:10:12.390Z,43.80
2019-05-22T10:12:40.814Z,44.90
2019-05-22T10:15:10.453Z,45.10
2019-05-22T10:17:42.243Z,45.50
2019-05-22T10:20:11.872Z,46.60
2019-05-22T10:22:40.351Z,46.80
2019-05-22T10:25:16.346Z,45.70
2019-05-22T10:27:41.038Z,46.10
2019-05-22T10:30:12.528Z,45.50
2019-05-22T10:32:41.230Z,45.60
2019-05-22T10:35:11.068Z,44.80
2019-05-22T10:37:40.893Z,45.40
2019-05-22T10:40:11.934Z,44.90
2019-05-22T10:42:44.380Z,44.00
2019-05-22T10:45:11.520Z,42.80
2019-05-22T10:47:40.380Z,42.60
2019-05-22T10:50:09.524Z,42.60
2019-05-22T10:52:37.930Z,42.60
2019-05-22T10:55:08.015Z,43.70
2019-05-22T10:57:40.491Z,44.30
2019-05-22T11:00:10.162Z,43.10
2019-05-22T11:02:39.203Z,42.10
2019-05-22T11:05:08.902Z,43.30
2019-05-22T11:07:37.383Z,43.50
2019-05-22T11:10:07.232Z,43.20
2019-05-22T11:12:36.177Z,43.80
2019-05-22T11:15:07.281Z,43.40
2019-05-22T11:17:36.210Z,44.10
2019-05-22T11:20:06.627Z,44.50
2019-05-22T11:22:36.266Z,45.20
2019-05-22T11:25:11.050Z,44.70
2019-05-22T11:27:40.500Z,43.10
2019-05-22T11:30:11.637Z,42.50
2019-05-22T11:32:40.795Z,42.10
2019-05-22T11:35:10.232Z,43.40
2019-05-22T11:37:39.377Z,42.80
2019-05-22T11:40:09.978Z,42.80
2019-05-22T11:42:39.082Z,43.10
2019-05-22T11:45:10.036Z,43.80
2019-05-22T11:47:39.124Z,44.50
2019-05-22T11:50:10.070Z,44.20
2019-05-22T11:52:38.637Z,45.10
2019-05-22T11:55:08.521Z,44.60
2019-05-22T11:57:38.226Z,43.70
2019-05-22T12:00:11.897Z,43.90
2019-05-22T12:02:40.310Z,43.10
2019-05-22T12:05:10.727Z,43.00
2019-05-22T12:07:41.482Z,43.20
2019-05-22T12:10:12.558Z,42.00
2019-05-22T12:12:41.291Z,41.70
2019-05-22T12:15:11.619Z,42.60
2019-05-22T12:17:40.485Z,42.30
2019-05-22T12:20:10.810Z,42.50
2019-05-22T12:22:39.625Z,42.30
2019-05-22T12:25:10.507Z,42.30
2019-05-22T12:27:39.109Z,43.00
2019-05-22T12:30:09.792Z,42.90
2019-05-22T12:32:39.384Z,42.90
2019-05-22T12:35:08.263Z,42.90
2019-05-22T12:37:36.682Z,42.80
2019-05-22T12:40:07.721Z,43.40
2019-05-22T12:42:36.615Z,43.80
2019-05-22T12:45:09.497Z,44.30
2019-05-22T12:47:38.419Z,44.90
2019-05-22T12:50:12.463Z,45.80
2019-05-22T12:52:42.354Z,45.80
2019-05-22T12:55:11.039Z,45.60
2019-05-22T12:57:40.297Z,46.00
2019-05-22T13:00:09.619Z,46.10
2019-05-22T13:02:42.130Z,46.50
2019-05-22T13:05:13.825Z,45.60
2019-05-22T13:07:40.357Z,45.10
2019-05-22T13:10:09.730Z,43.80
2019-05-22T13:12:38.261Z,43.50
2019-05-22T13:15:10.696Z,43.00
2019-05-22T13:17:39.438Z,41.00
2019-05-22T13:20:12.632Z,40.20
2019-05-22T13:22:47.669Z,40.20
2019-05-22T13:25:18.803Z,40.40
2019-05-22T13:27:47.794Z,39.10
2019-05-22T13:30:18.224Z,39.70
2019-05-22T13:32:47.270Z,39.90
2019-05-22T13:35:17.618Z,39.10
2019-05-22T13:37:46.247Z,38.00
2019-05-22T13:40:26.971Z,37.40
2019-05-22T13:42:45.321Z,38.40
2019-05-22T13:45:28.736Z,38.90
2019-05-22T13:47:45.805Z,39.10
2019-05-22T13:50:17.228Z,38.50
2019-05-22T13:52:46.521Z,38.30
2019-05-22T13:55:15.659Z,38.50
2019-05-22T13:57:44.501Z,38.50
2019-05-22T14:00:16.499Z,38.30
2019-05-22T14:02:45.002Z,38.10
2019-05-22T14:05:15.192Z,38.50
2019-05-22T14:07:44.265Z,38.00
2019-05-22T14:10:13.707Z,37.80
2019-05-22T14:12:44.119Z,37.50
2019-05-22T14:15:13.068Z,37.20
2019-05-22T14:17:42.134Z,37.20
2019-05-22T14:20:11.589Z,36.70
2019-05-22T14:22:40.012Z,37.20
2019-05-22T14:25:09.245Z,37.70
2019-05-22T14:27:41.557Z,37.90
2019-05-22T14:30:12.048Z,37.80
2019-05-22T14:32:41.047Z,38.00
2019-05-22T14:35:10.255Z,38.00
2019-05-22T14:37:39.138Z,38.30
2019-05-22T14:40:08.280Z,38.10
2019-05-22T14:42:37.651Z,38.40
2019-05-22T14:45:07.404Z,38.60
2019-05-22T14:47:35.988Z,38.50
2019-05-22T14:50:07.113Z,38.70
2019-05-22T14:52:36.083Z,39.00
2019-05-22T14:55:06.651Z,40.20
2019-05-22T14:57:35.603Z,41.70
2019-05-22T15:00:07.020Z,41.70
2019-05-22T15:02:37.521Z,41.80
2019-05-22T15:05:09.308Z,42.10
2019-05-22T15:07:38.142Z,42.10
2019-05-22T15:10:08.369Z,42.50
2019-05-22T15:12:37.564Z,42.80
2019-05-22T15:15:09.234Z,43.30
2019-05-22T15:17:38.360Z,43.40
2019-05-22T15:20:08.847Z,43.20
2019-05-22T15:22:37.594Z,43.90
2019-05-22T15:25:07.739Z,44.50
2019-05-22T15:27:37.106Z,45.50
2019-05-22T15:30:08.392Z,45.30
2019-05-22T15:32:36.792Z,44.30
2019-05-22T15:35:06.641Z,43.80
2019-05-22T15:37:36.095Z,43.60
2019-05-22T15:40:06.733Z,44.10
2019-05-22T15:42:45.577Z,44.90
2019-05-22T15:45:17.487Z,44.40
2019-05-22T15:47:54.841Z,43.40
2019-05-22T15:50:26.675Z,40.60
2019-05-22T15:52:59.619Z,41.20
2019-05-22T15:55:31.208Z,42.30
2019-05-22T15:58:00.659Z,43.30
2019-05-22T16:00:32.439Z,43.60
2019-05-22T16:03:07.609Z,44.00
2019-05-22T16:05:36.872Z,44.60
2019-05-22T16:08:06.810Z,45.70
2019-05-22T16:10:35.388Z,46.20
2019-05-22T16:13:05.959Z,47.00
2019-05-22T16:15:36.507Z,46.90
2019-05-22T16:18:11.553Z,46.90
2019-05-22T16:20:38.359Z,47.50
2019-05-22T16:23:08.396Z,47.80
2019-05-22T16:25:37.636Z,48.30
2019-05-22T16:28:25.494Z,48.90
2019-05-22T16:30:55.846Z,49.20
2019-05-22T16:33:24.643Z,49.00
2019-05-22T16:35:53.690Z,49.00
2019-05-22T16:38:26.537Z,49.20
2019-05-22T16:40:55.368Z,49.70
2019-05-22T16:43:24.620Z,50.00
2019-05-22T16:45:53.346Z,50.00
2019-05-22T16:48:29.103Z,49.50
2019-05-22T16:50:53.874Z,49.40
2019-05-22T16:53:24.786Z,49.10
2019-05-22T16:55:54.172Z,49.30
2019-05-22T16:58:23.816Z,49.40
2019-05-22T17:00:56.492Z,49.10
2019-05-22T17:03:26.615Z,49.30
2019-05-22T17:05:55.487Z,49.30
2019-05-22T17:08:25.622Z,49.30
2019-05-22T17:10:55.022Z,48.90
2019-05-22T17:13:23.955Z,48.80
2019-05-22T17:15:52.346Z,47.50
2019-05-22T17:18:21.210Z,47.70
2019-05-22T17:20:50.175Z,47.30
2019-05-22T17:23:18.697Z,46.40
2019-05-22T17:25:47.460Z,47.30
2019-05-22T17:28:17.915Z,46.40
2019-05-22T17:30:46.829Z,46.50
2019-05-22T17:33:15.589Z,45.60
2019-05-22T17:35:44.593Z,45.90
2019-05-22T17:38:13.848Z,45.80
2019-05-22T17:40:42.602Z,46.00
2019-05-22T17:43:12.968Z,46.50
2019-05-22T17:45:44.965Z,47.20
2019-05-22T17:48:15.200Z,48.10
2019-05-22T17:50:44.590Z,48.80
2019-05-22T17:53:14.145Z,49.20
2019-05-22T17:55:42.900Z,49.40
2019-05-22T17:58:12.132Z,49.70
2019-05-22T18:00:42.723Z,49.50
2019-05-22T18:03:11.615Z,49.70
2019-05-22T18:05:41.071Z,50.20
2019-05-22T18:08:10.637Z,50.40
2019-05-22T18:10:41.706Z,50.40
2019-05-22T18:13:13.326Z,50.50
2019-05-22T18:15:41.870Z,50.40
2019-05-22T18:18:11.288Z,50.80
2019-05-22T18:20:43.670Z,50.50
2019-05-22T18:23:10.689Z,51.10
2019-05-22T18:25:39.403Z,50.60
2019-05-22T18:28:08.196Z,50.30
2019-05-22T18:30:38.687Z,50.60
2019-05-22T18:33:07.343Z,50.80
2019-05-22T18:35:35.787Z,51.00
2019-05-22T18:38:05.153Z,51.40
2019-05-22T18:40:34.112Z,51.60
2019-05-22T18:43:02.876Z,51.70
2019-05-22T18:45:31.370Z,51.80
2019-05-22T18:47:59.853Z,52.10
2019-05-22T18:50:29.875Z,52.20
2019-05-22T18:52:58.471Z,52.50
2019-05-22T18:55:27.164Z,52.60
2019-05-22T18:57:55.668Z,52.70
2019-05-22T19:00:25.787Z,52.70
2019-05-22T19:02:54.271Z,52.40
2019-05-22T19:05:25.959Z,52.50
2019-05-22T19:07:54.853Z,53.00
2019-05-22T19:10:23.725Z,53.00
2019-05-22T19:12:54.534Z,53.90
2019-05-22T19:15:23.784Z,53.70
2019-05-22T19:17:52.468Z,54.10
2019-05-22T19:20:21.345Z,53.90
2019-05-22T19:22:59.022Z,54.10
2019-05-22T19:25:20.349Z,53.90
2019-05-22T19:27:48.826Z,53.90
2019-05-22T19:30:19.473Z,53.90
2019-05-22T19:32:48.736Z,54.10
2019-05-22T19:35:17.215Z,54.20
2019-05-22T19:37:46.435Z,54.40
2019-05-22T19:40:15.986Z,54.50
2019-05-22T19:42:44.829Z,54.60
2019-05-22T19:45:14.251Z,54.70
2019-05-22T19:47:51.135Z,54.70
2019-05-22T19:50:23.708Z,54.90
2019-05-22T19:52:54.675Z,54.80
2019-05-22T19:55:25.747Z,54.70
2019-05-22T19:57:55.153Z,55.00
2019-05-22T20:00:24.871Z,54.90
2019-05-22T20:02:54.709Z,54.90
2019-05-22T20:05:24.262Z,55.30
2019-05-22T20:07:53.443Z,55.40
2019-05-22T20:10:22.353Z,55.80
2019-05-22T20:12:50.777Z,56.20
2019-05-22T20:15:20.470Z,56.50
2019-05-22T20:17:49.193Z,56.70
2019-05-22T20:20:19.012Z,56.60
2019-05-22T20:22:47.693Z,56.70
2019-05-22T20:25:17.247Z,56.90
2019-05-22T20:27:46.204Z,57.00
2019-05-22T20:30:15.679Z,57.00
2019-05-22T20:32:44.117Z,57.00
2019-05-22T20:35:12.961Z,57.10
2019-05-22T20:37:43.714Z,57.40
2019-05-22T20:40:12.628Z,58.10
2019-05-22T20:42:41.650Z,58.50
2019-05-22T20:45:13.054Z,58.60
2019-05-22T20:47:43.950Z,58.80
2019-05-22T20:50:14.483Z,59.00
2019-05-22T20:52:44.394Z,59.20
2019-05-22T20:55:14.710Z,59.60
2019-05-22T20:57:43.800Z,60.30
2019-05-22T21:00:14.922Z,60.50
2019-05-22T21:02:45.321Z,60.80
2019-05-22T21:05:15.579Z,61.20
2019-05-22T21:07:49.885Z,61.40
2019-05-22T21:10:20.578Z,61.50
2019-05-22T21:12:51.155Z,62.10
2019-05-22T21:15:20.970Z,61.90
2019-05-22T21:17:52.041Z,62.20
2019-05-22T21:20:25.194Z,62.40
2019-05-22T21:22:53.848Z,62.70
2019-05-22T21:25:22.613Z,63.40
2019-05-22T21:27:51.618Z,63.60
2019-05-22T21:30:21.341Z,64.30
2019-05-22T21:32:50.103Z,63.80
2019-05-22T21:35:19.716Z,64.00
2019-05-22T21:37:48.370Z,64.80
2019-05-22T21:40:19.932Z,65.40
2019-05-22T21:42:49.144Z,66.20
2019-05-22T21:45:17.998Z,66.50
2019-05-22T21:47:46.575Z,67.00
2019-05-22T21:50:15.951Z,67.40
2019-05-22T21:52:44.550Z,68.00
2019-05-22T21:55:13.816Z,68.50
2019-05-22T21:57:44.196Z,68.90
2019-05-22T22:00:17.021Z,69.00
2019-05-22T22:02:48.628Z,69.00
2019-05-22T22:05:18.264Z,69.40
2019-05-22T22:07:47.344Z,69.70
2019-05-22T22:10:17.181Z,69.80
2019-05-22T22:12:47.808Z,69.80
2019-05-22T22:15:16.794Z,70.10
2019-05-22T22:17:46.842Z,70.40
2019-05-22T22:20:17.556Z,70.90
2019-05-22T22:22:48.629Z,71.00
2019-05-22T22:25:18.052Z,71.10
2019-05-22T22:27:46.748Z,71.60
2019-05-22T22:30:19.501Z,71.80
2019-05-22T22:32:48.973Z,71.90
2019-05-22T22:35:18.456Z,72.10
2019-05-22T22:37:47.147Z,72.00
2019-05-22T22:40:17.758Z,71.80
2019-05-22T22:42:46.840Z,71.70
2019-05-22T22:45:19.729Z,71.80
2019-05-22T22:47:49.194Z,71.70
2019-05-22T22:50:19.696Z,71.60
2019-05-22T22:52:48.759Z,71.60
2019-05-22T22:55:18.936Z,71.80
2019-05-22T22:57:48.567Z,72.80
2019-05-22T23:00:20.602Z,72.60
2019-05-22T23:02:49.576Z,72.50
2019-05-22T23:05:18.587Z,72.80
2019-05-22T23:07:48.602Z,73.40
2019-05-22T23:10:17.546Z,73.00
2019-05-22T23:12:46.842Z,73.00
2019-05-22T23:15:18.368Z,72.90
2019-05-22T23:17:48.488Z,73.10
2019-05-22T23:20:17.237Z,73.00
2019-05-22T23:22:44.656Z,73.20
2019-05-22T23:25:13.495Z,73.50
2019-05-22T23:27:43.047Z,73.50
2019-05-22T23:30:11.819Z,74.00
2019-05-22T23:32:42.993Z,73.90
2019-05-22T23:35:12.917Z,74.10
2019-05-22T23:37:42.884Z,74.20
2019-05-22T23:40:13.453Z,74.30
2019-05-22T23:42:43.484Z,74.40
2019-05-22T23:45:15.143Z,74.60
2019-05-22T23:47:53.274Z,74.80
2019-05-22T23:50:23.026Z,74.80
2019-05-22T23:52:52.383Z,74.70
2019-05-22T23:55:20.984Z,74.80
2019-05-22T23:57:51.070Z,74.90
